ADDS METAR Data INFO
IDs: Format: Raw Decoded Include TAF

Data at: 1549 UTC 24 Sep 2017

KDGW 241543Z AUTO 34008KT 10SM -RA OVC011 05/03 A3006 RMK AO2 RAB19 P0000 T00500033
KDGW 241453Z AUTO 35008KT 10SM OVC009 04/03 A3006 RMK AO2 SLP177 T00440028 53004
KDGW 241353Z AUTO 33007KT 10SM OVC007 04/02 A3005 RMK AO2 CIG 006V010 SLP175 T00390022
KDGW 241253Z AUTO 34009KT 10SM OVC008 04/02 A3005 RMK AO2 SLP172 T00390022
KDGW 241153Z AUTO 35005KT 10SM OVC008 04/03 A3005 RMK AO2 SLP169 70023 T00390028 10056 20039 53006
KDGW 241053Z AUTO 34010KT 9SM OVC008 04/03 A3002 RMK AO2 CIG 006V010 SLP161 T00390028
KDGW 240953Z AUTO 34007KT 10SM OVC008 04/03 A3003 RMK AO2 CIG 006V013 SLP164 T00440028
KDGW 240853Z AUTO 33007KT 10SM OVC008 05/03 A3002 RMK AO2 CIG 007V012 SLP160 T00500033 50003
KDGW 240753Z AUTO 35003KT 10SM BKN008 OVC015 05/04 A3003 RMK AO2 SLP164 T00500039
KDGW 240751Z AUTO 34003KT 10SM BKN008 OVC015 05/04 A3003 RMK AO2
KDGW 240745Z AUTO 34004KT 10SM SCT010 OVC015 05/04 A3003 RMK AO2 T00500039
KDGW 240732Z AUTO 34005KT 10SM OVC011 05/04 A3002 RMK AO2 T00500039
KDGW 240653Z AUTO 02008KT 10SM OVC006 06/04 A3001 RMK AO2 SLP156 T00560044 400780056
KDGW 240553Z AUTO 03008KT 10SM OVC006 06/04 A3001 RMK AO2 SLP156 60001 T00560044 10078 20056 53002
KDGW 240507Z AUTO 36007KT 9SM BKN005 OVC028 06/04 A3002 RMK AO2 PRESRR T00560044
KDGW 240453Z AUTO 36009KT 4SM BR SCT004 BKN021 OVC030 06/04 A2999 RMK AO2 RAB22E53 SLP150 P0001 T00560044
KDGW 240445Z AUTO 01009KT 3SM -RA BR SCT005 OVC020 06/05 A2998 RMK AO2 RAB22 PRESFR P0001 T00560050
KDGW 240437Z AUTO 36009KT 3SM -RA BR SCT015 OVC020 06/05 A2999 RMK AO2 RAB22 P0000 T00560050
KDGW 240428Z AUTO 35009KT 2 1/2SM -RA BR BKN015 OVC021 06/05 A3001 RMK AO2 RAB22 P0000 T00560050
KDGW 240353Z AUTO 02007KT 4SM BR OVC013 06/05 A2999 RMK AO2 SLP147 T00610050
KDGW 240253Z AUTO 11005KT 10SM OVC011 06/05 A3001 RMK AO2 PRESRR SLP156 60000 T00610050 53004
KDGW 240153Z AUTO 11006KT 10SM OVC009 07/06 A2998 RMK AO2 CIG 008V012 SLP144 T00720061
KDGW 240148Z AUTO 11007KT 10SM OVC011 07/06 A2998 RMK AO2
KDGW 240053Z AUTO 12009KT 10SM OVC009 07/06 A3000 RMK AO2 RAB08E49 SLP149 P0000 T00720056
KDGW 240016Z AUTO 12006KT 10SM -RA OVC009 07/06 A3000 RMK AO2 RAB08 CIG 007V013 P0000 T00720061
KDGW 240006Z AUTO 13006KT 10SM OVC010 07/06 A3001 RMK AO2 CIG 007V013 T00720061
KDGW 232353Z AUTO 14006KT 10SM OVC011 08/06 A3001 RMK AO2 CIG 007V013 SLP152 60019 T00780061 10078 20067 53004
KDGW 232328Z AUTO 11006KT 10SM FEW009 OVC014 08/06 A2998 RMK AO2 T00780061
KDGW 232253Z AUTO 13007KT 10SM OVC007 08/07 A2996 RMK AO2 RAE41 CIG 006V010 SLP135 P0001 T00780067
KDGW 232153Z AUTO 13011KT 8SM -RA BKN007 OVC055 07/06 A2999 RMK AO2 SLP148 P0003 T00720061
KDGW 232053Z AUTO 12011KT 8SM -RA BKN009 OVC013 08/06 A2999 RMK AO2 SLP147 P0004 60015 T00780061 56012
KDGW 232043Z AUTO 13012KT 10SM -RA SCT009 BKN013 OVC065 08/06 A3001 RMK AO2 P0004 T00780061
KDGW 232035Z AUTO 12010KT 10SM -RA BKN009 OVC013 07/06 A3000 RMK AO2 P0004 T00720061
KDGW 231953Z AUTO 12006KT 5SM RA BR FEW007 OVC014 07/06 A3001 RMK AO2 SLP152 P0004 T00720061
KDGW 231950Z AUTO 13007KT 5SM -RA BR SCT007 OVC014 07/06 A3001 RMK AO2 P0004
KDGW 231925Z AUTO 10008KT 10SM -RA BKN007 BKN050 OVC060 07/06 A3002 RMK AO2 P0003 T00720061
KDGW 231853Z AUTO 13006KT 3SM RA BR SCT006 BKN011 OVC047 07/06 A3004 RMK AO2 SLP163 P0007 T00720061
KDGW 231851Z AUTO 12006KT 3SM RA BR SCT006 BKN011 OVC014 07/06 A3004 RMK AO2 P0007
KDGW 231844Z AUTO 15005KT 2 1/2SM RA BR OVC008 07/06 A3005 RMK AO2 CIG 005V013 P0006 T00670061
KDGW 231835Z AUTO 16007KT 5SM -RA BR BKN010 OVC018 07/06 A3005 RMK AO2 P0004 T00670056
KDGW 231828Z AUTO 16005KT 5SM -RA BR BKN008 BKN012 OVC018 07/06 A3005 RMK AO2 P0003 T00670056
KDGW 231821Z AUTO 15006KT 6SM RA BR FEW008 BKN012 OVC018 07/06 A3005 RMK AO2 P0003 T00670056
KDGW 231753Z AUTO 13005KT 10SM -RA OVC019 07/05 A3003 RMK AO2 LTG DSNT SE AND S RAE09B53 SLP159 P0000 60003 T00720050 10078 20056 58004
KDGW 231653Z AUTO 00000KT 10SM -RA OVC016 07/04 A3004 RMK AO2 RAB18 SLP166 P0000 T00670044
KDGW 231553Z AUTO 30004KT 10SM OVC020 07/04 A3003 RMK AO2 SLP164 T00670044
KDGW 231501Z AUTO 00000KT 10SM FEW009 OVC027 06/04 A3004 RMK AO2 T00610044
KDGW 231453Z AUTO 00000KT 10SM OVC027 06/04 A3004 RMK AO2 RAB23E34 SLP165 P0000 60003 T00610044 51001
KDGW 231418Z AUTO 13011KT 10SM SCT010 BKN031 OVC055 06/04 A3005 RMK AO2 T00560039
KDGW 231401Z AUTO 12013KT 10SM BKN011 BKN034 OVC060 06/04 A3004 RMK AO2 T00560039
KDGW 231353Z AUTO 12012KT 10SM SCT013 BKN034 OVC060 06/04 A3004 RMK AO2 RAE38 SLP165 P0002 T00560044
KDGW 231345Z AUTO 13009KT 10SM SCT015 BKN060 OVC095 06/04 A3004 RMK AO2 RAE38 P0002 T00560044
KDGW 231325Z AUTO 12009KT 10SM -RA SCT013 BKN018 OVC095 06/04 A3003 RMK AO2 CIG 017V031 P0002 T00560044
KDGW 231253Z AUTO 11010KT 10SM -RA OVC012 06/04 A3004 RMK AO2 RAB28 SLP164 P0001 T00610044
KDGW 231236Z AUTO 11009KT 10SM -RA SCT007 OVC012 06/04 A3003 RMK AO2 RAB28 P0000 T00610044
KDGW 231224Z AUTO 09006KT 7SM BKN005 OVC012 06/06 A3003 RMK AO2 CIG 003V009 T00610056
KDGW 231153Z AUTO 08007KT 5SM BR OVC003 06/05 A3002 RMK AO2 RAB20E49 SLP156 P0000 60000 70023 T00610050 10067 20061 53002
KDGW 231129Z AUTO 07009KT 6SM -RA BR OVC004 06/05 A3001 RMK AO2 RAB20 P0000 T00610050
KDGW 231119Z AUTO 06007KT 7SM OVC005 06/05 A3003 RMK AO2 CIG 003V009 T00610050
KDGW 231053Z AUTO 07009KT 4SM BR BKN004 OVC015 06/05 A3001 RMK AO2 SLP146 T00610050
KDGW 231049Z AUTO 07010KT 5SM BR BKN004 OVC015 06/05 A3001 RMK AO2
KDGW 231030Z AUTO 07009KT 7SM FEW005 OVC016 06/05 A3001 RMK AO2 T00610050
KDGW 230953Z AUTO 07009KT 10SM OVC016 06/05 A3002 RMK AO2 SLP142 T00610050
KDGW 230932Z AUTO 05009KT 10SM OVC015 06/05 A3001 RMK AO2 T00610050
KDGW 230853Z AUTO 04008KT 10SM OVC014 06/05 A3003 RMK AO2 SLP147 T00610050 53005
KDGW 230843Z AUTO 05008KT 10SM SCT006 OVC014 06/05 A3004 RMK AO2 PRESRR T00610050
KDGW 230812Z AUTO 07007KT 8SM BKN007 OVC015 07/06 A3001 RMK AO2 T00670056
KDGW 230759Z AUTO 01003KT 9SM SCT007 OVC014 07/06 A3002 RMK AO2 T00670056
KDGW 230753Z AUTO 00000KT 10SM OVC015 07/06 A3002 RMK AO2 SLP143 T00670056
KDGW 230717Z AUTO 01004KT 10SM BKN015 OVC033 06/05 A3001 RMK AO2 T00610050
KDGW 230704Z AUTO VRB03KT 10SM SCT014 BKN034 06/05 A3001 RMK AO2 T00610050
KDGW 230653Z AUTO 06003KT 10SM BKN012 BKN036 06/05 A3001 RMK AO2 SLP141 T00610050 401500011
KDGW 230650Z AUTO 07004KT 10SM SCT010 BKN015 BKN036 06/04 A3001 RMK AO2
KDGW 230553Z AUTO 36003KT 10SM OVC008 07/06 A3000 RMK AO2 SLP138 60022 T00670056 10094 20056 53012
KDGW 230543Z AUTO 35004KT 10SM BKN007 06/05 A2999 RMK AO2 T00610050
KDGW 230527Z AUTO 02006KT 10SM SCT007 06/05 A2998 RMK AO2 T00610050
KDGW 230453Z AUTO 00000KT 10SM CLR 06/05 A2999 RMK AO2 SLP138 T00610050
KDGW 230353Z AUTO 00000KT 10SM CLR 06/06 A2997 RMK AO2 SLP138 T00560056